sensor_id;sensor_type;location;lat;lon;timestamp;P1;durP1;ratioP1;P2;durP2;ratioP2
80199;SDS011;69520;44.900;-0.764;2023-07-31T00:02:21;9.45;;;3.25;;
80199;SDS011;69520;44.900;-0.764;2023-07-31T00:04:47;11.50;;;3.50;;
80199;SDS011;69520;44.900;-0.764;2023-07-31T00:07:14;11.23;;;2.97;;
80199;SDS011;69520;44.900;-0.764;2023-07-31T00:09:40;10.93;;;3.67;;
80199;SDS011;69520;44.900;-0.764;2023-07-31T00:12:06;11.93;;;3.50;;
80199;SDS011;69520;44.900;-0.764;2023-07-31T00:14:32;14.05;;;3.38;;
80199;SDS011;69520;44.900;-0.764;2023-07-31T00:16:58;10.43;;;3.00;;
80199;SDS011;69520;44.900;-0.764;2023-07-31T00:19:24;11.82;;;3.55;;
80199;SDS011;69520;44.900;-0.764;2023-07-31T00:21:50;11.00;;;3.53;;
80199;SDS011;69520;44.900;-0.764;2023-07-31T00:24:16;12.07;;;4.03;;
80199;SDS011;69520;44.900;-0.764;2023-07-31T00:26:42;9.85;;;3.13;;
80199;SDS011;69520;44.900;-0.764;2023-07-31T00:29:08;11.68;;;3.92;;
80199;SDS011;69520;44.900;-0.764;2023-07-31T00:31:34;9.90;;;2.90;;
80199;SDS011;69520;44.900;-0.764;2023-07-31T00:34:01;11.33;;;3.77;;
80199;SDS011;69520;44.900;-0.764;2023-07-31T00:36:27;10.80;;;3.42;;
80199;SDS011;69520;44.900;-0.764;2023-07-31T00:38:53;10.40;;;3.20;;
80199;SDS011;69520;44.900;-0.764;2023-07-31T00:41:19;10.35;;;3.20;;
80199;SDS011;69520;44.900;-0.764;2023-07-31T00:43:45;9.75;;;3.25;;
80199;SDS011;69520;44.900;-0.764;2023-07-31T00:46:11;12.63;;;3.40;;
80199;SDS011;69520;44.900;-0.764;2023-07-31T00:48:37;12.45;;;3.60;;
80199;SDS011;69520;44.900;-0.764;2023-07-31T00:51:03;9.57;;;3.58;;
80199;SDS011;69520;44.900;-0.764;2023-07-31T00:53:29;10.52;;;3.13;;
80199;SDS011;69520;44.900;-0.764;2023-07-31T00:55:55;12.10;;;3.75;;
80199;SDS011;69520;44.900;-0.764;2023-07-31T00:58:22;11.13;;;3.27;;
80199;SDS011;69520;44.900;-0.764;2023-07-31T01:00:48;10.32;;;3.47;;
80199;SDS011;69520;44.900;-0.764;2023-07-31T01:03:15;12.85;;;3.38;;
80199;SDS011;69520;44.900;-0.764;2023-07-31T01:11:00;8.47;;;3.20;;
80199;SDS011;69520;44.900;-0.764;2023-07-31T01:13:28;12.20;;;4.32;;
80199;SDS011;69520;44.900;-0.764;2023-07-31T01:15:54;10.60;;;3.38;;
80199;SDS011;69520;44.900;-0.764;2023-07-31T01:18:20;11.35;;;3.58;;
80199;SDS011;69520;44.900;-0.764;2023-07-31T01:20:47;11.48;;;3.28;;
80199;SDS011;69520;44.900;-0.764;2023-07-31T01:23:35;10.57;;;2.90;;
80199;SDS011;69520;44.900;-0.764;2023-07-31T01:26:05;10.20;;;2.80;;
80199;SDS011;69520;44.900;-0.764;2023-07-31T01:31:12;11.18;;;3.08;;
80199;SDS011;69520;44.900;-0.764;2023-07-31T01:33:40;9.73;;;3.15;;
80199;SDS011;69520;44.900;-0.764;2023-07-31T01:36:06;13.40;;;3.40;;
80199;SDS011;69520;44.900;-0.764;2023-07-31T01:38:33;11.10;;;3.22;;
80199;SDS011;69520;44.900;-0.764;2023-07-31T01:40:59;11.48;;;3.05;;
80199;SDS011;69520;44.900;-0.764;2023-07-31T01:43:25;10.05;;;3.33;;
80199;SDS011;69520;44.900;-0.764;2023-07-31T01:45:51;9.65;;;3.28;;
80199;SDS011;69520;44.900;-0.764;2023-07-31T01:48:17;11.13;;;3.50;;
80199;SDS011;69520;44.900;-0.764;2023-07-31T01:50:43;10.85;;;3.20;;
80199;SDS011;69520;44.900;-0.764;2023-07-31T01:53:09;10.05;;;3.00;;
80199;SDS011;69520;44.900;-0.764;2023-07-31T01:55:37;10.93;;;3.72;;
80199;SDS011;69520;44.900;-0.764;2023-07-31T01:58:03;12.40;;;3.28;;
80199;SDS011;69520;44.900;-0.764;2023-07-31T02:00:29;10.97;;;3.53;;
80199;SDS011;69520;44.900;-0.764;2023-07-31T02:02:55;11.18;;;3.10;;
80199;SDS011;69520;44.900;-0.764;2023-07-31T02:05:21;10.15;;;3.13;;
80199;SDS011;69520;44.900;-0.764;2023-07-31T02:07:47;8.90;;;2.90;;
80199;SDS011;69520;44.900;-0.764;2023-07-31T02:10:13;11.32;;;2.70;;
80199;SDS011;69520;44.900;-0.764;2023-07-31T02:12:39;10.90;;;3.23;;
80199;SDS011;69520;44.900;-0.764;2023-07-31T02:15:05;8.35;;;3.00;;
80199;SDS011;69520;44.900;-0.764;2023-07-31T02:17:31;10.10;;;3.00;;
80199;SDS011;69520;44.900;-0.764;2023-07-31T02:19:57;8.75;;;2.63;;
80199;SDS011;69520;44.900;-0.764;2023-07-31T02:22:24;9.95;;;3.10;;
80199;SDS011;69520;44.900;-0.764;2023-07-31T02:24:50;9.83;;;3.20;;
80199;SDS011;69520;44.900;-0.764;2023-07-31T02:27:16;10.43;;;3.50;;
80199;SDS011;69520;44.900;-0.764;2023-07-31T02:29:42;13.75;;;3.40;;
80199;SDS011;69520;44.900;-0.764;2023-07-31T02:32:08;9.95;;;3.20;;
80199;SDS011;69520;44.900;-0.764;2023-07-31T02:34:34;10.77;;;2.97;;
80199;SDS011;69520;44.900;-0.764;2023-07-31T02:37:00;9.70;;;2.90;;
80199;SDS011;69520;44.900;-0.764;2023-07-31T02:39:26;11.50;;;3.45;;
80199;SDS011;69520;44.900;-0.764;2023-07-31T02:41:52;11.32;;;3.63;;
80199;SDS011;69520;44.900;-0.764;2023-07-31T02:44:18;10.98;;;3.40;;
80199;SDS011;69520;44.900;-0.764;2023-07-31T02:46:45;9.63;;;2.88;;
80199;SDS011;69520;44.900;-0.764;2023-07-31T02:49:11;10.10;;;3.20;;
80199;SDS011;69520;44.900;-0.764;2023-07-31T02:51:37;10.57;;;3.40;;
80199;SDS011;69520;44.900;-0.764;2023-07-31T02:54:03;11.07;;;3.40;;
80199;SDS011;69520;44.900;-0.764;2023-07-31T02:56:29;11.80;;;3.35;;
80199;SDS011;69520;44.900;-0.764;2023-07-31T02:58:55;9.18;;;3.25;;
80199;SDS011;69520;44.900;-0.764;2023-07-31T03:01:21;10.13;;;2.73;;
80199;SDS011;69520;44.900;-0.764;2023-07-31T03:03:47;10.27;;;3.00;;
80199;SDS011;69520;44.900;-0.764;2023-07-31T03:06:13;13.43;;;3.13;;
80199;SDS011;69520;44.900;-0.764;2023-07-31T03:08:39;9.82;;;3.22;;
80199;SDS011;69520;44.900;-0.764;2023-07-31T03:11:05;10.25;;;2.65;;
80199;SDS011;69520;44.900;-0.764;2023-07-31T03:13:31;10.80;;;3.30;;
80199;SDS011;69520;44.900;-0.764;2023-07-31T03:15:57;11.07;;;3.10;;
80199;SDS011;69520;44.900;-0.764;2023-07-31T03:18:23;9.68;;;2.85;;
80199;SDS011;69520;44.900;-0.764;2023-07-31T03:20:50;9.57;;;2.90;;
80199;SDS011;69520;44.900;-0.764;2023-07-31T03:23:16;11.05;;;2.88;;
80199;SDS011;69520;44.900;-0.764;2023-07-31T03:25:54;9.70;;;2.50;;
80199;SDS011;69520;44.900;-0.764;2023-07-31T03:28:21;9.77;;;3.08;;
80199;SDS011;69520;44.900;-0.764;2023-07-31T03:30:47;10.15;;;3.25;;
80199;SDS011;69520;44.900;-0.764;2023-07-31T03:33:13;9.63;;;2.78;;
80199;SDS011;69520;44.900;-0.764;2023-07-31T03:35:39;9.88;;;2.88;;
80199;SDS011;69520;44.900;-0.764;2023-07-31T03:38:05;9.90;;;3.40;;
80199;SDS011;69520;44.900;-0.764;2023-07-31T03:40:31;11.05;;;3.20;;
80199;SDS011;69520;44.900;-0.764;2023-07-31T03:42:57;10.82;;;3.03;;
80199;SDS011;69520;44.900;-0.764;2023-07-31T03:45:23;9.57;;;2.72;;
80199;SDS011;69520;44.900;-0.764;2023-07-31T03:47:49;9.48;;;2.95;;
80199;SDS011;69520;44.900;-0.764;2023-07-31T03:50:15;7.87;;;2.27;;
80199;SDS011;69520;44.900;-0.764;2023-07-31T03:52:41;11.35;;;3.00;;
80199;SDS011;69520;44.900;-0.764;2023-07-31T03:55:07;7.63;;;2.35;;
80199;SDS011;69520;44.900;-0.764;2023-07-31T03:57:33;9.50;;;2.53;;
80199;SDS011;69520;44.900;-0.764;2023-07-31T03:59:59;10.73;;;2.33;;
80199;SDS011;69520;44.900;-0.764;2023-07-31T04:02:25;9.40;;;2.83;;
80199;SDS011;69520;44.900;-0.764;2023-07-31T04:04:51;11.00;;;2.85;;
80199;SDS011;69520;44.900;-0.764;2023-07-31T04:07:17;7.60;;;2.15;;
80199;SDS011;69520;44.900;-0.764;2023-07-31T04:09:43;7.75;;;2.45;;
80199;SDS011;69520;44.900;-0.764;2023-07-31T04:12:09;9.75;;;2.78;;
80199;SDS011;69520;44.900;-0.764;2023-07-31T04:14:36;7.50;;;2.60;;
80199;SDS011;69520;44.900;-0.764;2023-07-31T04:17:02;9.60;;;3.03;;
80199;SDS011;69520;44.900;-0.764;2023-07-31T04:19:28;10.55;;;2.80;;
80199;SDS011;69520;44.900;-0.764;2023-07-31T04:21:54;10.20;;;3.58;;
80199;SDS011;69520;44.900;-0.764;2023-07-31T04:24:20;10.70;;;2.50;;
80199;SDS011;69520;44.900;-0.764;2023-07-31T04:26:52;9.20;;;2.70;;
80199;SDS011;69520;44.900;-0.764;2023-07-31T04:29:19;9.38;;;2.70;;
80199;SDS011;69520;44.900;-0.764;2023-07-31T04:31:45;8.95;;;2.78;;
80199;SDS011;69520;44.900;-0.764;2023-07-31T04:34:11;9.10;;;2.50;;
80199;SDS011;69520;44.900;-0.764;2023-07-31T04:36:37;8.45;;;2.35;;
80199;SDS011;69520;44.900;-0.764;2023-07-31T04:39:03;11.57;;;2.67;;
80199;SDS011;69520;44.900;-0.764;2023-07-31T04:41:29;10.45;;;2.75;;
80199;SDS011;69520;44.900;-0.764;2023-07-31T04:43:55;9.60;;;2.63;;
80199;SDS011;69520;44.900;-0.764;2023-07-31T04:46:21;8.63;;;2.70;;
80199;SDS011;69520;44.900;-0.764;2023-07-31T04:48:47;9.73;;;2.80;;
80199;SDS011;69520;44.900;-0.764;2023-07-31T04:51:13;11.20;;;3.07;;
80199;SDS011;69520;44.900;-0.764;2023-07-31T04:53:39;8.73;;;2.50;;
80199;SDS011;69520;44.900;-0.764;2023-07-31T04:56:05;10.27;;;2.53;;
80199;SDS011;69520;44.900;-0.764;2023-07-31T04:58:31;10.68;;;2.90;;
80199;SDS011;69520;44.900;-0.764;2023-07-31T05:00:57;9.05;;;2.90;;
80199;SDS011;69520;44.900;-0.764;2023-07-31T05:03:23;11.03;;;2.40;;
80199;SDS011;69520;44.900;-0.764;2023-07-31T05:05:49;10.52;;;2.60;;
80199;SDS011;69520;44.900;-0.764;2023-07-31T05:08:16;9.90;;;2.80;;
80199;SDS011;69520;44.900;-0.764;2023-07-31T05:10:45;10.55;;;2.72;;
80199;SDS011;69520;44.900;-0.764;2023-07-31T05:13:11;8.82;;;2.55;;
80199;SDS011;69520;44.900;-0.764;2023-07-31T05:15:37;10.80;;;2.57;;
80199;SDS011;69520;44.900;-0.764;2023-07-31T05:18:03;9.82;;;2.55;;
80199;SDS011;69520;44.900;-0.764;2023-07-31T05:20:29;14.00;;;3.20;;
80199;SDS011;69520;44.900;-0.764;2023-07-31T05:22:55;9.30;;;2.80;;
80199;SDS011;69520;44.900;-0.764;2023-07-31T05:25:21;9.32;;;2.97;;
80199;SDS011;69520;44.900;-0.764;2023-07-31T05:27:47;11.07;;;2.87;;
80199;SDS011;69520;44.900;-0.764;2023-07-31T05:30:14;13.52;;;3.20;;
80199;SDS011;69520;44.900;-0.764;2023-07-31T05:32:40;11.00;;;3.00;;
80199;SDS011;69520;44.900;-0.764;2023-07-31T05:35:06;9.02;;;2.95;;
80199;SDS011;69520;44.900;-0.764;2023-07-31T05:37:32;8.57;;;2.83;;
80199;SDS011;69520;44.900;-0.764;2023-07-31T05:39:58;10.50;;;3.30;;
80199;SDS011;69520;44.900;-0.764;2023-07-31T05:42:24;10.43;;;3.22;;
80199;SDS011;69520;44.900;-0.764;2023-07-31T05:44:50;19.58;;;3.38;;
80199;SDS011;69520;44.900;-0.764;2023-07-31T05:47:16;11.43;;;3.10;;
80199;SDS011;69520;44.900;-0.764;2023-07-31T05:49:42;13.38;;;3.13;;
80199;SDS011;69520;44.900;-0.764;2023-07-31T05:52:08;10.97;;;3.10;;
80199;SDS011;69520;44.900;-0.764;2023-07-31T05:54:34;11.40;;;3.45;;
80199;SDS011;69520;44.900;-0.764;2023-07-31T05:57:00;12.98;;;3.47;;
80199;SDS011;69520;44.900;-0.764;2023-07-31T05:59:26;10.57;;;3.00;;
80199;SDS011;69520;44.900;-0.764;2023-07-31T06:01:52;10.02;;;3.13;;
80199;SDS011;69520;44.900;-0.764;2023-07-31T06:04:18;12.63;;;3.40;;
80199;SDS011;69520;44.900;-0.764;2023-07-31T06:06:44;11.25;;;3.00;;
80199;SDS011;69520;44.900;-0.764;2023-07-31T06:09:10;10.45;;;2.97;;
80199;SDS011;69520;44.900;-0.764;2023-07-31T06:11:36;12.88;;;3.28;;
80199;SDS011;69520;44.900;-0.764;2023-07-31T06:14:03;16.30;;;3.10;;
80199;SDS011;69520;44.900;-0.764;2023-07-31T06:16:29;8.93;;;3.00;;
80199;SDS011;69520;44.900;-0.764;2023-07-31T06:18:55;13.00;;;3.10;;
80199;SDS011;69520;44.900;-0.764;2023-07-31T06:21:21;13.07;;;3.40;;
80199;SDS011;69520;44.900;-0.764;2023-07-31T06:23:47;12.18;;;3.28;;
80199;SDS011;69520;44.900;-0.764;2023-07-31T06:26:13;10.73;;;3.17;;
80199;SDS011;69520;44.900;-0.764;2023-07-31T06:28:39;11.93;;;2.80;;
80199;SDS011;69520;44.900;-0.764;2023-07-31T06:31:05;14.35;;;2.90;;
80199;SDS011;69520;44.900;-0.764;2023-07-31T06:33:31;12.15;;;3.45;;
80199;SDS011;69520;44.900;-0.764;2023-07-31T06:35:57;9.43;;;3.00;;
80199;SDS011;69520;44.900;-0.764;2023-07-31T06:38:26;11.07;;;3.25;;
80199;SDS011;69520;44.900;-0.764;2023-07-31T06:40:52;9.13;;;2.90;;
80199;SDS011;69520;44.900;-0.764;2023-07-31T06:43:18;11.60;;;2.85;;
80199;SDS011;69520;44.900;-0.764;2023-07-31T06:45:44;14.88;;;3.60;;
80199;SDS011;69520;44.900;-0.764;2023-07-31T06:48:11;11.45;;;3.15;;
80199;SDS011;69520;44.900;-0.764;2023-07-31T06:50:37;11.27;;;3.20;;
80199;SDS011;69520;44.900;-0.764;2023-07-31T06:53:03;15.60;;;3.37;;
80199;SDS011;69520;44.900;-0.764;2023-07-31T06:55:29;13.30;;;3.05;;
80199;SDS011;69520;44.900;-0.764;2023-07-31T06:57:56;12.50;;;2.97;;
80199;SDS011;69520;44.900;-0.764;2023-07-31T07:00:22;10.30;;;3.00;;
80199;SDS011;69520;44.900;-0.764;2023-07-31T07:02:49;10.07;;;2.97;;
80199;SDS011;69520;44.900;-0.764;2023-07-31T07:05:16;9.70;;;3.00;;
80199;SDS011;69520;44.900;-0.764;2023-07-31T07:07:42;10.30;;;2.78;;
80199;SDS011;69520;44.900;-0.764;2023-07-31T07:10:09;12.80;;;3.15;;
80199;SDS011;69520;44.900;-0.764;2023-07-31T07:12:35;13.07;;;2.78;;
80199;SDS011;69520;44.900;-0.764;2023-07-31T07:15:01;9.68;;;3.03;;
80199;SDS011;69520;44.900;-0.764;2023-07-31T07:17:28;10.20;;;2.73;;
80199;SDS011;69520;44.900;-0.764;2023-07-31T07:19:58;12.18;;;3.00;;
80199;SDS011;69520;44.900;-0.764;2023-07-31T07:22:24;10.27;;;2.63;;
80199;SDS011;69520;44.900;-0.764;2023-07-31T07:24:50;8.73;;;2.70;;
80199;SDS011;69520;44.900;-0.764;2023-07-31T07:27:17;10.55;;;2.72;;
80199;SDS011;69520;44.900;-0.764;2023-07-31T07:29:43;12.00;;;2.87;;
80199;SDS011;69520;44.900;-0.764;2023-07-31T07:32:09;9.63;;;2.90;;
80199;SDS011;69520;44.900;-0.764;2023-07-31T07:34:36;14.07;;;3.13;;
80199;SDS011;69520;44.900;-0.764;2023-07-31T07:37:02;9.63;;;2.47;;
80199;SDS011;69520;44.900;-0.764;2023-07-31T07:39:29;11.82;;;3.03;;
80199;SDS011;69520;44.900;-0.764;2023-07-31T07:41:55;11.40;;;2.60;;
80199;SDS011;69520;44.900;-0.764;2023-07-31T07:44:21;10.82;;;3.20;;
80199;SDS011;69520;44.900;-0.764;2023-07-31T07:46:47;9.90;;;2.58;;
80199;SDS011;69520;44.900;-0.764;2023-07-31T07:49:13;11.48;;;2.92;;
80199;SDS011;69520;44.900;-0.764;2023-07-31T07:51:39;10.88;;;2.50;;
80199;SDS011;69520;44.900;-0.764;2023-07-31T07:54:05;10.30;;;2.90;;
80199;SDS011;69520;44.900;-0.764;2023-07-31T07:56:32;10.77;;;2.65;;
80199;SDS011;69520;44.900;-0.764;2023-07-31T07:58:58;11.20;;;2.58;;
80199;SDS011;69520;44.900;-0.764;2023-07-31T08:01:24;10.88;;;2.60;;
80199;SDS011;69520;44.900;-0.764;2023-07-31T08:03:50;10.82;;;3.03;;
80199;SDS011;69520;44.900;-0.764;2023-07-31T08:06:16;10.23;;;2.50;;
80199;SDS011;69520;44.900;-0.764;2023-07-31T08:08:42;10.05;;;2.97;;
80199;SDS011;69520;44.900;-0.764;2023-07-31T08:11:08;9.55;;;3.00;;
80199;SDS011;69520;44.900;-0.764;2023-07-31T08:13:34;11.60;;;2.60;;
80199;SDS011;69520;44.900;-0.764;2023-07-31T08:16:02;10.65;;;3.03;;
80199;SDS011;69520;44.900;-0.764;2023-07-31T08:18:28;12.13;;;3.00;;
80199;SDS011;69520;44.900;-0.764;2023-07-31T08:20:54;12.57;;;2.80;;
80199;SDS011;69520;44.900;-0.764;2023-07-31T08:23:20;10.90;;;2.90;;
80199;SDS011;69520;44.900;-0.764;2023-07-31T08:25:46;10.60;;;3.10;;
80199;SDS011;69520;44.900;-0.764;2023-07-31T08:28:14;13.63;;;2.85;;
80199;SDS011;69520;44.900;-0.764;2023-07-31T08:30:41;9.33;;;2.73;;
80199;SDS011;69520;44.900;-0.764;2023-07-31T08:33:07;10.45;;;2.55;;
80199;SDS011;69520;44.900;-0.764;2023-07-31T08:35:33;9.88;;;2.90;;
80199;SDS011;69520;44.900;-0.764;2023-07-31T08:37:59;10.77;;;2.80;;
80199;SDS011;69520;44.900;-0.764;2023-07-31T08:40:25;8.90;;;2.70;;
80199;SDS011;69520;44.900;-0.764;2023-07-31T08:42:54;9.97;;;2.63;;
80199;SDS011;69520;44.900;-0.764;2023-07-31T08:45:22;10.02;;;2.80;;
80199;SDS011;69520;44.900;-0.764;2023-07-31T08:47:49;10.25;;;2.85;;
80199;SDS011;69520;44.900;-0.764;2023-07-31T08:50:17;10.30;;;2.50;;
80199;SDS011;69520;44.900;-0.764;2023-07-31T08:52:44;11.85;;;2.95;;
80199;SDS011;69520;44.900;-0.764;2023-07-31T08:55:10;10.37;;;2.90;;
80199;SDS011;69520;44.900;-0.764;2023-07-31T08:57:36;10.40;;;2.70;;
80199;SDS011;69520;44.900;-0.764;2023-07-31T09:00:04;11.68;;;2.90;;
80199;SDS011;69520;44.900;-0.764;2023-07-31T09:02:52;9.02;;;2.47;;
80199;SDS011;69520;44.900;-0.764;2023-07-31T09:05:20;8.38;;;2.60;;
80199;SDS011;69520;44.900;-0.764;2023-07-31T09:07:47;9.17;;;3.00;;
80199;SDS011;69520;44.900;-0.764;2023-07-31T09:10:14;11.18;;;2.35;;
80199;SDS011;69520;44.900;-0.764;2023-07-31T09:12:40;8.27;;;2.40;;
80199;SDS011;69520;44.900;-0.764;2023-07-31T09:15:06;8.07;;;2.45;;
80199;SDS011;69520;44.900;-0.764;2023-07-31T09:17:33;8.30;;;2.20;;
80199;SDS011;69520;44.900;-0.764;2023-07-31T09:20:13;10.13;;;4.40;;
80199;SDS011;69520;44.900;-0.764;2023-07-31T09:22:39;9.57;;;2.40;;
80199;SDS011;69520;44.900;-0.764;2023-07-31T09:27:47;8.48;;;2.53;;
80199;SDS011;69520;44.900;-0.764;2023-07-31T09:30:14;8.63;;;2.50;;
80199;SDS011;69520;44.900;-0.764;2023-07-31T09:32:40;8.80;;;2.70;;
80199;SDS011;69520;44.900;-0.764;2023-07-31T09:35:13;8.57;;;2.50;;
80199;SDS011;69520;44.900;-0.764;2023-07-31T09:37:40;7.13;;;2.13;;
80199;SDS011;69520;44.900;-0.764;2023-07-31T09:40:06;9.65;;;2.15;;
80199;SDS011;69520;44.900;-0.764;2023-07-31T09:42:32;9.77;;;2.40;;
80199;SDS011;69520;44.900;-0.764;2023-07-31T09:45:09;8.70;;;2.60;;
80199;SDS011;69520;44.900;-0.764;2023-07-31T09:47:35;10.35;;;2.42;;
80199;SDS011;69520;44.900;-0.764;2023-07-31T09:50:01;10.80;;;2.50;;
80199;SDS011;69520;44.900;-0.764;2023-07-31T09:52:32;9.52;;;3.20;;
80199;SDS011;69520;44.900;-0.764;2023-07-31T09:54:59;9.13;;;2.88;;
80199;SDS011;69520;44.900;-0.764;2023-07-31T09:57:25;8.43;;;2.53;;
80199;SDS011;69520;44.900;-0.764;2023-07-31T09:59:51;8.35;;;2.50;;
80199;SDS011;69520;44.900;-0.764;2023-07-31T10:02:20;9.45;;;2.80;;
80199;SDS011;69520;44.900;-0.764;2023-07-31T10:04:47;9.25;;;2.97;;
80199;SDS011;69520;44.900;-0.764;2023-07-31T10:07:16;7.78;;;2.97;;
80199;SDS011;69520;44.900;-0.764;2023-07-31T10:09:43;9.87;;;3.13;;
80199;SDS011;69520;44.900;-0.764;2023-07-31T10:12:11;9.02;;;3.22;;
80199;SDS011;69520;44.900;-0.764;2023-07-31T10:14:38;8.15;;;3.00;;
80199;SDS011;69520;44.900;-0.764;2023-07-31T10:17:05;9.52;;;2.83;;
80199;SDS011;69520;44.900;-0.764;2023-07-31T10:19:31;9.77;;;2.67;;
80199;SDS011;69520;44.900;-0.764;2023-07-31T10:21:57;10.47;;;3.00;;
80199;SDS011;69520;44.900;-0.764;2023-07-31T10:24:24;9.05;;;2.97;;
80199;SDS011;69520;44.900;-0.764;2023-07-31T10:26:51;9.10;;;2.97;;
80199;SDS011;69520;44.900;-0.764;2023-07-31T10:29:18;8.27;;;2.60;;
80199;SDS011;69520;44.900;-0.764;2023-07-31T10:31:45;9.27;;;2.80;;
80199;SDS011;69520;44.900;-0.764;2023-07-31T10:34:12;10.13;;;2.57;;
80199;SDS011;69520;44.900;-0.764;2023-07-31T10:36:39;9.40;;;2.95;;
80199;SDS011;69520;44.900;-0.764;2023-07-31T10:39:05;8.30;;;2.85;;
80199;SDS011;69520;44.900;-0.764;2023-07-31T10:41:51;21.88;;;6.65;;
80199;SDS011;69520;44.900;-0.764;2023-07-31T10:44:17;17.20;;;4.85;;
80199;SDS011;69520;44.900;-0.764;2023-07-31T10:46:45;12.27;;;3.20;;
80199;SDS011;69520;44.900;-0.764;2023-07-31T10:49:12;7.95;;;2.90;;
80199;SDS011;69520;44.900;-0.764;2023-07-31T10:51:47;8.25;;;2.70;;
80199;SDS011;69520;44.900;-0.764;2023-07-31T10:54:13;9.57;;;3.20;;
80199;SDS011;69520;44.900;-0.764;2023-07-31T10:56:40;9.77;;;2.70;;
80199;SDS011;69520;44.900;-0.764;2023-07-31T10:59:10;10.43;;;3.13;;
80199;SDS011;69520;44.900;-0.764;2023-07-31T11:01:50;11.80;;;3.05;;
80199;SDS011;69520;44.900;-0.764;2023-07-31T11:04:21;9.68;;;2.40;;
80199;SDS011;69520;44.900;-0.764;2023-07-31T11:06:58;9.07;;;2.65;;
80199;SDS011;69520;44.900;-0.764;2023-07-31T11:09:27;8.85;;;2.33;;
80199;SDS011;69520;44.900;-0.764;2023-07-31T11:11:55;11.00;;;2.20;;
80199;SDS011;69520;44.900;-0.764;2023-07-31T11:14:21;7.07;;;2.10;;
80199;SDS011;69520;44.900;-0.764;2023-07-31T11:16:49;6.20;;;2.08;;
80199;SDS011;69520;44.900;-0.764;2023-07-31T11:19:25;7.57;;;2.40;;
80199;SDS011;69520;44.900;-0.764;2023-07-31T11:21:52;7.90;;;2.38;;
80199;SDS011;69520;44.900;-0.764;2023-07-31T11:24:18;10.47;;;2.50;;
80199;SDS011;69520;44.900;-0.764;2023-07-31T11:26:51;6.82;;;2.17;;
80199;SDS011;69520;44.900;-0.764;2023-07-31T11:29:18;8.68;;;2.25;;
80199;SDS011;69520;44.900;-0.764;2023-07-31T11:31:44;6.13;;;2.22;;
80199;SDS011;69520;44.900;-0.764;2023-07-31T11:34:10;8.15;;;2.40;;
80199;SDS011;69520;44.900;-0.764;2023-07-31T11:36:36;8.63;;;2.27;;
80199;SDS011;69520;44.900;-0.764;2023-07-31T11:39:05;6.57;;;2.10;;
80199;SDS011;69520;44.900;-0.764;2023-07-31T11:41:32;7.15;;;2.05;;
80199;SDS011;69520;44.900;-0.764;2023-07-31T11:44:01;9.15;;;2.50;;
80199;SDS011;69520;44.900;-0.764;2023-07-31T11:46:29;6.50;;;2.13;;
80199;SDS011;69520;44.900;-0.764;2023-07-31T11:49:01;6.47;;;2.30;;
80199;SDS011;69520;44.900;-0.764;2023-07-31T11:51:27;7.63;;;2.25;;
80199;SDS011;69520;44.900;-0.764;2023-07-31T11:53:55;7.55;;;2.13;;
80199;SDS011;69520;44.900;-0.764;2023-07-31T11:56:22;6.38;;;1.92;;
80199;SDS011;69520;44.900;-0.764;2023-07-31T11:58:50;6.25;;;2.03;;
80199;SDS011;69520;44.900;-0.764;2023-07-31T12:01:18;6.47;;;2.10;;
80199;SDS011;69520;44.900;-0.764;2023-07-31T12:03:45;7.47;;;2.20;;
80199;SDS011;69520;44.900;-0.764;2023-07-31T12:06:11;6.43;;;1.85;;
80199;SDS011;69520;44.900;-0.764;2023-07-31T12:08:37;7.03;;;1.95;;
80199;SDS011;69520;44.900;-0.764;2023-07-31T12:11:05;7.55;;;2.05;;
80199;SDS011;69520;44.900;-0.764;2023-07-31T12:13:31;9.43;;;2.50;;
80199;SDS011;69520;44.900;-0.764;2023-07-31T12:15:59;7.03;;;2.40;;
80199;SDS011;69520;44.900;-0.764;2023-07-31T12:18:27;6.07;;;2.03;;
80199;SDS011;69520;44.900;-0.764;2023-07-31T12:20:57;8.23;;;2.20;;
80199;SDS011;69520;44.900;-0.764;2023-07-31T12:23:24;6.70;;;1.83;;
80199;SDS011;69520;44.900;-0.764;2023-07-31T12:28:26;6.20;;;1.90;;
80199;SDS011;69520;44.900;-0.764;2023-07-31T12:30:52;6.32;;;1.83;;
80199;SDS011;69520;44.900;-0.764;2023-07-31T12:33:23;6.50;;;2.25;;
80199;SDS011;69520;44.900;-0.764;2023-07-31T12:35:49;6.72;;;2.35;;
80199;SDS011;69520;44.900;-0.764;2023-07-31T12:38:15;7.00;;;2.40;;
80199;SDS011;69520;44.900;-0.764;2023-07-31T12:40:41;6.70;;;2.30;;
80199;SDS011;69520;44.900;-0.764;2023-07-31T12:43:07;7.25;;;2.40;;
80199;SDS011;69520;44.900;-0.764;2023-07-31T12:45:34;8.07;;;2.15;;
80199;SDS011;69520;44.900;-0.764;2023-07-31T12:48:00;7.32;;;2.17;;
80199;SDS011;69520;44.900;-0.764;2023-07-31T12:50:27;6.23;;;2.10;;
80199;SDS011;69520;44.900;-0.764;2023-07-31T12:52:54;9.00;;;2.35;;
80199;SDS011;69520;44.900;-0.764;2023-07-31T12:55:20;6.07;;;2.08;;
80199;SDS011;69520;44.900;-0.764;2023-07-31T12:57:46;6.45;;;2.08;;
80199;SDS011;69520;44.900;-0.764;2023-07-31T13:00:13;7.53;;;2.45;;
80199;SDS011;69520;44.900;-0.764;2023-07-31T13:02:39;8.53;;;2.33;;
80199;SDS011;69520;44.900;-0.764;2023-07-31T13:05:05;5.90;;;1.90;;
80199;SDS011;69520;44.900;-0.764;2023-07-31T13:07:31;6.28;;;2.05;;
80199;SDS011;69520;44.900;-0.764;2023-07-31T13:09:57;7.50;;;2.45;;
80199;SDS011;69520;44.900;-0.764;2023-07-31T13:12:23;10.40;;;2.60;;
80199;SDS011;69520;44.900;-0.764;2023-07-31T13:14:50;6.73;;;2.20;;
80199;SDS011;69520;44.900;-0.764;2023-07-31T13:17:16;7.15;;;2.15;;
80199;SDS011;69520;44.900;-0.764;2023-07-31T13:19:42;6.93;;;2.15;;
80199;SDS011;69520;44.900;-0.764;2023-07-31T13:22:08;7.18;;;2.10;;
80199;SDS011;69520;44.900;-0.764;2023-07-31T13:24:34;6.75;;;2.22;;
80199;SDS011;69520;44.900;-0.764;2023-07-31T13:27:00;7.17;;;2.43;;
80199;SDS011;69520;44.900;-0.764;2023-07-31T13:29:26;7.60;;;2.33;;
80199;SDS011;69520;44.900;-0.764;2023-07-31T13:31:52;7.00;;;1.95;;
80199;SDS011;69520;44.900;-0.764;2023-07-31T13:34:18;8.05;;;2.20;;
80199;SDS011;69520;44.900;-0.764;2023-07-31T13:36:44;7.25;;;2.20;;
80199;SDS011;69520;44.900;-0.764;2023-07-31T13:39:11;6.63;;;2.10;;
80199;SDS011;69520;44.900;-0.764;2023-07-31T13:41:37;6.60;;;2.15;;
80199;SDS011;69520;44.900;-0.764;2023-07-31T13:44:03;7.78;;;2.25;;
80199;SDS011;69520;44.900;-0.764;2023-07-31T13:46:29;8.20;;;2.40;;
80199;SDS011;69520;44.900;-0.764;2023-07-31T13:48:57;6.05;;;2.00;;
80199;SDS011;69520;44.900;-0.764;2023-07-31T13:51:24;7.10;;;2.30;;
80199;SDS011;69520;44.900;-0.764;2023-07-31T13:53:50;7.97;;;2.28;;
80199;SDS011;69520;44.900;-0.764;2023-07-31T13:56:16;6.10;;;2.10;;
80199;SDS011;69520;44.900;-0.764;2023-07-31T13:58:42;7.07;;;2.00;;
80199;SDS011;69520;44.900;-0.764;2023-07-31T14:01:08;6.85;;;2.20;;
80199;SDS011;69520;44.900;-0.764;2023-07-31T14:03:34;7.70;;;2.17;;
80199;SDS011;69520;44.900;-0.764;2023-07-31T14:06:00;7.25;;;2.10;;
80199;SDS011;69520;44.900;-0.764;2023-07-31T14:08:26;5.85;;;1.95;;
80199;SDS011;69520;44.900;-0.764;2023-07-31T14:10:52;7.15;;;2.20;;
80199;SDS011;69520;44.900;-0.764;2023-07-31T14:13:18;6.47;;;2.17;;
80199;SDS011;69520;44.900;-0.764;2023-07-31T14:15:44;7.53;;;2.20;;
80199;SDS011;69520;44.900;-0.764;2023-07-31T14:18:10;7.38;;;2.30;;
80199;SDS011;69520;44.900;-0.764;2023-07-31T14:20:36;7.38;;;2.15;;
80199;SDS011;69520;44.900;-0.764;2023-07-31T14:23:03;7.10;;;2.00;;
80199;SDS011;69520;44.900;-0.764;2023-07-31T14:25:29;7.50;;;2.25;;
80199;SDS011;69520;44.900;-0.764;2023-07-31T14:27:55;7.37;;;2.10;;
80199;SDS011;69520;44.900;-0.764;2023-07-31T14:30:21;6.78;;;2.40;;
80199;SDS011;69520;44.900;-0.764;2023-07-31T14:32:47;8.27;;;2.53;;
80199;SDS011;69520;44.900;-0.764;2023-07-31T14:35:13;6.65;;;2.00;;
80199;SDS011;69520;44.900;-0.764;2023-07-31T14:37:39;7.65;;;2.33;;
80199;SDS011;69520;44.900;-0.764;2023-07-31T14:40:07;6.07;;;2.17;;